Decoded Metar for KBFW (SILVER BAY in MN, USA) (IATA:BFW) | Meteo·Mobile Aviation Weather
aviador You're here:

KBFW Decoded Metar

SILVER BAY in MN, USA
Report Time2019-03-23 20:55:00
UTC Time2019-03-23 21:12:06
Flight Rules vfr VFR
Wind190° at 11 kt
W.Decomp.*RWY 25: 5.5 kt HW 9.5 kt LCW
W.Rank190° ranks 14
Current wind is above 190° avg. (7.3)
Visibility9999 m
Phenomena:N/A
Clouds:N/A
Expected CloudBase > 5,600 ft AGL from Temp-Dew spread
CeilingNone
Temp10°C (ISA -3)
Dew Point-4°C (37% RH)
AAT3.5°C
QNH1013 hPa
Density Alt814 ft
Elevation1,086 ft
Report Wrong Elevation
Raw Report
KBFW 232055Z AUTO 19011KT 10SM CLR 10/M04 A2992 RMK AO2=

Extra information for KBFW:More info

Metar Taf Metar & Taf Last 4 Metars F.Rules Stats Wind Profile Meteogram Temp Stats Airport Information Weather charts Add Link Nearby VenuesMetar ALERT Operation Metar Decoded Social comments

AIRNAV info for KBFW